sensor_id;sensor_type;location;lat;lon;timestamp;P1;durP1;ratioP1;P2;durP2;ratioP2
26050;SDS011;13825;53.496;10.020;2022-12-20T00:01:33;12.43;;;7.13;;
26050;SDS011;13825;53.496;10.020;2022-12-20T00:04:02;12.97;;;6.67;;
26050;SDS011;13825;53.496;10.020;2022-12-20T00:06:30;10.60;;;5.97;;
26050;SDS011;13825;53.496;10.020;2022-12-20T00:09:00;10.90;;;6.37;;
26050;SDS011;13825;53.496;10.020;2022-12-20T00:11:27;10.80;;;5.70;;
26050;SDS011;13825;53.496;10.020;2022-12-20T00:13:55;11.80;;;6.20;;
26050;SDS011;13825;53.496;10.020;2022-12-20T00:16:22;9.50;;;6.47;;
26050;SDS011;13825;53.496;10.020;2022-12-20T00:18:51;12.33;;;6.47;;
26050;SDS011;13825;53.496;10.020;2022-12-20T00:21:20;12.07;;;5.90;;
26050;SDS011;13825;53.496;10.020;2022-12-20T00:23:48;12.37;;;6.90;;
26050;SDS011;13825;53.496;10.020;2022-12-20T00:26:17;12.90;;;6.77;;
26050;SDS011;13825;53.496;10.020;2022-12-20T00:28:45;10.60;;;6.33;;
26050;SDS011;13825;53.496;10.020;2022-12-20T00:31:13;11.87;;;6.90;;
26050;SDS011;13825;53.496;10.020;2022-12-20T00:33:43;10.23;;;6.50;;
26050;SDS011;13825;53.496;10.020;2022-12-20T00:36:11;11.23;;;6.07;;
26050;SDS011;13825;53.496;10.020;2022-12-20T00:38:40;9.57;;;5.93;;
26050;SDS011;13825;53.496;10.020;2022-12-20T00:41:10;8.90;;;5.83;;
26050;SDS011;13825;53.496;10.020;2022-12-20T00:43:39;13.57;;;7.07;;
26050;SDS011;13825;53.496;10.020;2022-12-20T00:46:07;10.17;;;6.60;;
26050;SDS011;13825;53.496;10.020;2022-12-20T00:48:35;9.57;;;6.00;;
26050;SDS011;13825;53.496;10.020;2022-12-20T00:51:03;15.00;;;6.73;;
26050;SDS011;13825;53.496;10.020;2022-12-20T00:53:32;9.57;;;5.70;;
26050;SDS011;13825;53.496;10.020;2022-12-20T00:56:00;9.40;;;5.90;;
26050;SDS011;13825;53.496;10.020;2022-12-20T00:58:28;11.67;;;6.00;;
26050;SDS011;13825;53.496;10.020;2022-12-20T01:00:55;11.40;;;6.43;;
26050;SDS011;13825;53.496;10.020;2022-12-20T01:03:21;11.07;;;6.67;;
26050;SDS011;13825;53.496;10.020;2022-12-20T01:05:49;8.93;;;5.27;;
26050;SDS011;13825;53.496;10.020;2022-12-20T01:08:18;9.23;;;6.50;;
26050;SDS011;13825;53.496;10.020;2022-12-20T01:10:45;9.27;;;5.90;;
26050;SDS011;13825;53.496;10.020;2022-12-20T01:13:13;10.90;;;6.13;;
26050;SDS011;13825;53.496;10.020;2022-12-20T01:15:40;10.77;;;6.37;;
26050;SDS011;13825;53.496;10.020;2022-12-20T01:18:07;9.77;;;5.70;;
26050;SDS011;13825;53.496;10.020;2022-12-20T01:20:34;11.83;;;6.33;;
26050;SDS011;13825;53.496;10.020;2022-12-20T01:23:00;11.67;;;6.97;;
26050;SDS011;13825;53.496;10.020;2022-12-20T01:25:27;12.37;;;6.50;;
26050;SDS011;13825;53.496;10.020;2022-12-20T01:27:54;11.87;;;6.60;;
26050;SDS011;13825;53.496;10.020;2022-12-20T01:30:22;9.53;;;5.77;;
26050;SDS011;13825;53.496;10.020;2022-12-20T01:32:49;10.20;;;6.47;;
26050;SDS011;13825;53.496;10.020;2022-12-20T01:35:17;8.60;;;5.70;;
26050;SDS011;13825;53.496;10.020;2022-12-20T01:37:43;10.93;;;6.43;;
26050;SDS011;13825;53.496;10.020;2022-12-20T01:40:10;9.43;;;5.73;;
26050;SDS011;13825;53.496;10.020;2022-12-20T01:42:38;10.17;;;5.67;;
26050;SDS011;13825;53.496;10.020;2022-12-20T01:45:08;10.10;;;6.00;;
26050;SDS011;13825;53.496;10.020;2022-12-20T01:47:54;11.33;;;6.10;;
26050;SDS011;13825;53.496;10.020;2022-12-20T01:50:22;9.27;;;5.30;;
26050;SDS011;13825;53.496;10.020;2022-12-20T01:52:49;10.40;;;6.13;;
26050;SDS011;13825;53.496;10.020;2022-12-20T01:55:19;9.33;;;5.80;;
26050;SDS011;13825;53.496;10.020;2022-12-20T01:57:49;9.67;;;5.90;;
26050;SDS011;13825;53.496;10.020;2022-12-20T02:00:21;8.30;;;5.60;;
26050;SDS011;13825;53.496;10.020;2022-12-20T02:02:48;11.33;;;6.50;;
26050;SDS011;13825;53.496;10.020;2022-12-20T02:05:17;8.33;;;5.67;;
26050;SDS011;13825;53.496;10.020;2022-12-20T02:07:47;10.27;;;5.47;;
26050;SDS011;13825;53.496;10.020;2022-12-20T02:10:15;9.70;;;5.10;;
26050;SDS011;13825;53.496;10.020;2022-12-20T02:12:43;8.80;;;4.87;;
26050;SDS011;13825;53.496;10.020;2022-12-20T02:15:18;7.63;;;5.20;;
26050;SDS011;13825;53.496;10.020;2022-12-20T02:17:56;8.63;;;5.43;;
26050;SDS011;13825;53.496;10.020;2022-12-20T02:26:47;8.87;;;5.00;;
26050;SDS011;13825;53.496;10.020;2022-12-20T02:29:26;7.07;;;4.80;;
26050;SDS011;13825;53.496;10.020;2022-12-20T02:32:01;10.27;;;5.53;;
26050;SDS011;13825;53.496;10.020;2022-12-20T02:34:34;7.20;;;5.23;;
26050;SDS011;13825;53.496;10.020;2022-12-20T02:37:02;8.60;;;4.90;;
26050;SDS011;13825;53.496;10.020;2022-12-20T02:39:30;8.33;;;4.93;;
26050;SDS011;13825;53.496;10.020;2022-12-20T02:42:00;8.10;;;4.83;;
26050;SDS011;13825;53.496;10.020;2022-12-20T02:44:30;8.10;;;4.50;;
26050;SDS011;13825;53.496;10.020;2022-12-20T02:47:19;11.47;;;5.70;;
26050;SDS011;13825;53.496;10.020;2022-12-20T02:49:49;8.50;;;4.87;;
26050;SDS011;13825;53.496;10.020;2022-12-20T02:52:19;9.53;;;5.37;;
26050;SDS011;13825;53.496;10.020;2022-12-20T02:54:50;9.13;;;5.03;;
26050;SDS011;13825;53.496;10.020;2022-12-20T02:57:19;8.33;;;5.10;;
26050;SDS011;13825;53.496;10.020;2022-12-20T02:59:52;6.47;;;4.80;;
26050;SDS011;13825;53.496;10.020;2022-12-20T03:02:27;8.50;;;5.20;;
26050;SDS011;13825;53.496;10.020;2022-12-20T03:05:16;8.67;;;5.33;;
26050;SDS011;13825;53.496;10.020;2022-12-20T03:07:43;7.07;;;4.73;;
26050;SDS011;13825;53.496;10.020;2022-12-20T03:10:10;8.57;;;5.43;;
26050;SDS011;13825;53.496;10.020;2022-12-20T03:12:37;7.93;;;4.77;;
26050;SDS011;13825;53.496;10.020;2022-12-20T03:15:04;8.83;;;4.70;;
26050;SDS011;13825;53.496;10.020;2022-12-20T03:17:33;7.97;;;4.60;;
26050;SDS011;13825;53.496;10.020;2022-12-20T03:20:00;7.60;;;5.13;;
26050;SDS011;13825;53.496;10.020;2022-12-20T03:22:26;9.03;;;4.90;;
26050;SDS011;13825;53.496;10.020;2022-12-20T03:24:53;6.93;;;4.97;;
26050;SDS011;13825;53.496;10.020;2022-12-20T03:27:20;7.73;;;4.77;;
26050;SDS011;13825;53.496;10.020;2022-12-20T03:29:47;5.97;;;4.53;;
26050;SDS011;13825;53.496;10.020;2022-12-20T03:32:14;9.37;;;5.47;;
26050;SDS011;13825;53.496;10.020;2022-12-20T03:34:42;10.47;;;4.63;;
26050;SDS011;13825;53.496;10.020;2022-12-20T03:37:09;8.03;;;4.83;;
26050;SDS011;13825;53.496;10.020;2022-12-20T03:39:36;9.23;;;5.07;;
26050;SDS011;13825;53.496;10.020;2022-12-20T03:42:02;8.00;;;5.13;;
26050;SDS011;13825;53.496;10.020;2022-12-20T03:44:29;8.23;;;4.10;;
26050;SDS011;13825;53.496;10.020;2022-12-20T03:46:56;6.50;;;4.20;;
26050;SDS011;13825;53.496;10.020;2022-12-20T03:49:23;6.80;;;4.30;;
26050;SDS011;13825;53.496;10.020;2022-12-20T03:51:51;10.87;;;5.00;;
26050;SDS011;13825;53.496;10.020;2022-12-20T03:54:18;8.50;;;5.07;;
26050;SDS011;13825;53.496;10.020;2022-12-20T03:56:45;8.87;;;4.87;;
26050;SDS011;13825;53.496;10.020;2022-12-20T03:59:12;8.47;;;4.80;;
26050;SDS011;13825;53.496;10.020;2022-12-20T04:01:39;7.17;;;4.53;;
26050;SDS011;13825;53.496;10.020;2022-12-20T04:04:06;7.43;;;4.70;;
26050;SDS011;13825;53.496;10.020;2022-12-20T04:06:35;7.83;;;4.70;;
26050;SDS011;13825;53.496;10.020;2022-12-20T04:09:03;6.30;;;4.53;;
26050;SDS011;13825;53.496;10.020;2022-12-20T04:11:30;7.20;;;4.57;;
26050;SDS011;13825;53.496;10.020;2022-12-20T04:13:57;9.20;;;4.57;;
26050;SDS011;13825;53.496;10.020;2022-12-20T04:16:26;8.70;;;4.93;;
26050;SDS011;13825;53.496;10.020;2022-12-20T04:18:54;8.10;;;4.80;;
26050;SDS011;13825;53.496;10.020;2022-12-20T04:21:21;7.30;;;4.37;;
26050;SDS011;13825;53.496;10.020;2022-12-20T04:23:49;7.27;;;4.23;;
26050;SDS011;13825;53.496;10.020;2022-12-20T04:26:18;8.67;;;5.03;;
26050;SDS011;13825;53.496;10.020;2022-12-20T04:28:46;12.80;;;4.93;;
26050;SDS011;13825;53.496;10.020;2022-12-20T04:31:13;8.17;;;4.73;;
26050;SDS011;13825;53.496;10.020;2022-12-20T04:33:40;9.80;;;6.13;;
26050;SDS011;13825;53.496;10.020;2022-12-20T04:36:09;8.33;;;5.47;;
26050;SDS011;13825;53.496;10.020;2022-12-20T04:38:35;8.40;;;4.77;;
26050;SDS011;13825;53.496;10.020;2022-12-20T04:41:02;7.93;;;5.87;;
26050;SDS011;13825;53.496;10.020;2022-12-20T04:43:31;8.57;;;5.17;;
26050;SDS011;13825;53.496;10.020;2022-12-20T04:45:58;8.27;;;5.03;;
26050;SDS011;13825;53.496;10.020;2022-12-20T04:48:26;7.50;;;5.07;;
26050;SDS011;13825;53.496;10.020;2022-12-20T04:50:54;7.47;;;5.00;;
26050;SDS011;13825;53.496;10.020;2022-12-20T04:53:27;6.67;;;4.60;;
26050;SDS011;13825;53.496;10.020;2022-12-20T04:56:12;8.87;;;5.07;;
26050;SDS011;13825;53.496;10.020;2022-12-20T04:58:42;8.40;;;5.13;;
26050;SDS011;13825;53.496;10.020;2022-12-20T05:01:09;9.23;;;5.13;;
26050;SDS011;13825;53.496;10.020;2022-12-20T05:03:37;7.63;;;5.23;;
26050;SDS011;13825;53.496;10.020;2022-12-20T05:06:04;8.10;;;5.27;;
26050;SDS011;13825;53.496;10.020;2022-12-20T05:08:32;8.63;;;5.07;;
26050;SDS011;13825;53.496;10.020;2022-12-20T05:11:00;9.57;;;5.60;;
26050;SDS011;13825;53.496;10.020;2022-12-20T05:13:27;9.97;;;4.67;;
26050;SDS011;13825;53.496;10.020;2022-12-20T05:15:55;10.83;;;6.03;;
26050;SDS011;13825;53.496;10.020;2022-12-20T05:18:23;7.47;;;5.43;;
26050;SDS011;13825;53.496;10.020;2022-12-20T05:20:53;8.87;;;5.63;;
26050;SDS011;13825;53.496;10.020;2022-12-20T05:23:34;10.10;;;5.80;;
26050;SDS011;13825;53.496;10.020;2022-12-20T05:26:19;7.33;;;4.83;;
26050;SDS011;13825;53.496;10.020;2022-12-20T05:28:49;8.13;;;5.33;;
26050;SDS011;13825;53.496;10.020;2022-12-20T05:31:17;6.93;;;5.10;;
26050;SDS011;13825;53.496;10.020;2022-12-20T05:33:44;12.37;;;5.10;;
26050;SDS011;13825;53.496;10.020;2022-12-20T05:36:11;8.87;;;5.13;;
26050;SDS011;13825;53.496;10.020;2022-12-20T05:38:38;11.50;;;5.43;;
26050;SDS011;13825;53.496;10.020;2022-12-20T05:41:06;9.63;;;5.30;;
26050;SDS011;13825;53.496;10.020;2022-12-20T05:43:33;8.63;;;4.93;;
26050;SDS011;13825;53.496;10.020;2022-12-20T05:46:00;8.77;;;5.27;;
26050;SDS011;13825;53.496;10.020;2022-12-20T05:48:29;11.70;;;5.13;;
26050;SDS011;13825;53.496;10.020;2022-12-20T05:50:56;8.87;;;4.73;;
26050;SDS011;13825;53.496;10.020;2022-12-20T05:53:23;9.47;;;4.67;;
26050;SDS011;13825;53.496;10.020;2022-12-20T05:55:51;10.23;;;5.20;;
26050;SDS011;13825;53.496;10.020;2022-12-20T05:58:19;7.93;;;5.47;;
26050;SDS011;13825;53.496;10.020;2022-12-20T06:00:46;7.10;;;4.93;;
26050;SDS011;13825;53.496;10.020;2022-12-20T06:03:14;9.17;;;5.10;;
26050;SDS011;13825;53.496;10.020;2022-12-20T06:05:43;9.93;;;5.40;;
26050;SDS011;13825;53.496;10.020;2022-12-20T06:08:12;10.03;;;5.87;;
26050;SDS011;13825;53.496;10.020;2022-12-20T06:10:39;8.50;;;5.57;;
26050;SDS011;13825;53.496;10.020;2022-12-20T06:13:07;11.90;;;5.10;;
26050;SDS011;13825;53.496;10.020;2022-12-20T06:15:35;6.03;;;4.67;;
26050;SDS011;13825;53.496;10.020;2022-12-20T06:18:02;7.43;;;4.70;;
26050;SDS011;13825;53.496;10.020;2022-12-20T06:20:30;9.30;;;5.07;;
26050;SDS011;13825;53.496;10.020;2022-12-20T06:22:58;9.10;;;5.00;;
26050;SDS011;13825;53.496;10.020;2022-12-20T06:25:27;8.97;;;5.23;;
26050;SDS011;13825;53.496;10.020;2022-12-20T06:27:54;8.23;;;5.70;;
26050;SDS011;13825;53.496;10.020;2022-12-20T06:30:21;9.10;;;5.47;;
26050;SDS011;13825;53.496;10.020;2022-12-20T06:32:49;9.00;;;5.70;;
26050;SDS011;13825;53.496;10.020;2022-12-20T06:35:15;11.07;;;5.97;;
26050;SDS011;13825;53.496;10.020;2022-12-20T06:37:42;10.50;;;5.97;;
26050;SDS011;13825;53.496;10.020;2022-12-20T06:40:12;7.73;;;5.47;;
26050;SDS011;13825;53.496;10.020;2022-12-20T06:42:39;11.83;;;5.70;;
26050;SDS011;13825;53.496;10.020;2022-12-20T06:45:06;10.60;;;5.83;;
26050;SDS011;13825;53.496;10.020;2022-12-20T06:47:34;9.83;;;6.07;;
26050;SDS011;13825;53.496;10.020;2022-12-20T06:50:02;8.93;;;5.50;;
26050;SDS011;13825;53.496;10.020;2022-12-20T06:52:29;10.50;;;5.23;;
26050;SDS011;13825;53.496;10.020;2022-12-20T06:54:56;8.03;;;5.30;;
26050;SDS011;13825;53.496;10.020;2022-12-20T06:57:24;9.07;;;5.50;;
26050;SDS011;13825;53.496;10.020;2022-12-20T06:59:51;12.13;;;6.40;;
26050;SDS011;13825;53.496;10.020;2022-12-20T07:02:18;10.63;;;5.77;;
26050;SDS011;13825;53.496;10.020;2022-12-20T07:04:45;9.73;;;5.70;;
26050;SDS011;13825;53.496;10.020;2022-12-20T07:07:12;9.07;;;5.60;;
26050;SDS011;13825;53.496;10.020;2022-12-20T07:09:39;9.33;;;5.83;;
26050;SDS011;13825;53.496;10.020;2022-12-20T07:12:08;12.23;;;6.90;;
26050;SDS011;13825;53.496;10.020;2022-12-20T07:14:37;12.53;;;6.93;;
26050;SDS011;13825;53.496;10.020;2022-12-20T07:17:04;12.93;;;6.50;;
26050;SDS011;13825;53.496;10.020;2022-12-20T07:19:32;11.70;;;7.00;;
26050;SDS011;13825;53.496;10.020;2022-12-20T07:22:00;11.30;;;6.80;;
26050;SDS011;13825;53.496;10.020;2022-12-20T07:24:27;11.33;;;6.67;;
26050;SDS011;13825;53.496;10.020;2022-12-20T07:26:54;14.30;;;6.93;;
26050;SDS011;13825;53.496;10.020;2022-12-20T07:29:21;11.93;;;7.23;;
26050;SDS011;13825;53.496;10.020;2022-12-20T07:31:49;12.20;;;7.23;;
26050;SDS011;13825;53.496;10.020;2022-12-20T07:34:16;13.83;;;6.83;;
26050;SDS011;13825;53.496;10.020;2022-12-20T07:36:44;13.40;;;7.17;;
26050;SDS011;13825;53.496;10.020;2022-12-20T07:39:11;12.30;;;6.57;;
26050;SDS011;13825;53.496;10.020;2022-12-20T07:41:38;11.60;;;7.40;;
26050;SDS011;13825;53.496;10.020;2022-12-20T07:44:06;13.60;;;7.10;;
26050;SDS011;13825;53.496;10.020;2022-12-20T07:46:33;12.53;;;6.60;;
26050;SDS011;13825;53.496;10.020;2022-12-20T07:49:01;14.70;;;7.33;;
26050;SDS011;13825;53.496;10.020;2022-12-20T07:51:30;14.97;;;7.47;;
26050;SDS011;13825;53.496;10.020;2022-12-20T07:54:01;13.93;;;7.53;;
26050;SDS011;13825;53.496;10.020;2022-12-20T07:56:32;13.70;;;7.50;;
26050;SDS011;13825;53.496;10.020;2022-12-20T07:59:01;15.57;;;8.30;;
26050;SDS011;13825;53.496;10.020;2022-12-20T08:01:29;14.60;;;8.20;;
26050;SDS011;13825;53.496;10.020;2022-12-20T08:03:58;13.87;;;7.40;;
26050;SDS011;13825;53.496;10.020;2022-12-20T08:06:29;12.17;;;7.67;;
26050;SDS011;13825;53.496;10.020;2022-12-20T08:08:57;15.47;;;8.27;;
26050;SDS011;13825;53.496;10.020;2022-12-20T08:11:27;16.57;;;8.27;;
26050;SDS011;13825;53.496;10.020;2022-12-20T08:13:55;17.10;;;8.70;;
26050;SDS011;13825;53.496;10.020;2022-12-20T08:16:22;14.73;;;8.43;;
26050;SDS011;13825;53.496;10.020;2022-12-20T08:18:49;16.10;;;7.90;;
26050;SDS011;13825;53.496;10.020;2022-12-20T08:21:17;14.87;;;7.37;;
26050;SDS011;13825;53.496;10.020;2022-12-20T08:23:44;16.13;;;7.97;;
26050;SDS011;13825;53.496;10.020;2022-12-20T08:26:11;14.33;;;7.83;;
26050;SDS011;13825;53.496;10.020;2022-12-20T08:28:38;13.50;;;8.23;;
26050;SDS011;13825;53.496;10.020;2022-12-20T08:31:06;15.27;;;8.37;;
26050;SDS011;13825;53.496;10.020;2022-12-20T08:33:34;12.87;;;7.70;;
26050;SDS011;13825;53.496;10.020;2022-12-20T08:36:02;14.43;;;8.87;;
26050;SDS011;13825;53.496;10.020;2022-12-20T08:38:32;18.07;;;8.90;;
26050;SDS011;13825;53.496;10.020;2022-12-20T08:41:02;13.20;;;8.07;;
26050;SDS011;13825;53.496;10.020;2022-12-20T08:43:31;10.97;;;7.13;;
26050;SDS011;13825;53.496;10.020;2022-12-20T08:45:58;13.33;;;7.77;;
26050;SDS011;13825;53.496;10.020;2022-12-20T08:48:26;11.07;;;7.80;;
26050;SDS011;13825;53.496;10.020;2022-12-20T08:50:53;13.47;;;7.73;;
26050;SDS011;13825;53.496;10.020;2022-12-20T08:53:21;12.97;;;7.97;;
26050;SDS011;13825;53.496;10.020;2022-12-20T08:55:49;13.33;;;7.73;;
26050;SDS011;13825;53.496;10.020;2022-12-20T08:58:16;13.93;;;7.70;;
26050;SDS011;13825;53.496;10.020;2022-12-20T09:00:43;13.83;;;7.97;;
26050;SDS011;13825;53.496;10.020;2022-12-20T09:03:11;14.83;;;7.90;;
26050;SDS011;13825;53.496;10.020;2022-12-20T09:05:42;13.70;;;8.03;;
26050;SDS011;13825;53.496;10.020;2022-12-20T09:08:10;15.27;;;7.57;;
26050;SDS011;13825;53.496;10.020;2022-12-20T09:10:37;14.40;;;7.80;;
26050;SDS011;13825;53.496;10.020;2022-12-20T09:13:05;12.77;;;7.83;;
26050;SDS011;13825;53.496;10.020;2022-12-20T09:15:32;12.40;;;6.90;;
26050;SDS011;13825;53.496;10.020;2022-12-20T09:17:59;11.23;;;6.70;;
26050;SDS011;13825;53.496;10.020;2022-12-20T09:20:26;10.53;;;7.07;;
26050;SDS011;13825;53.496;10.020;2022-12-20T09:22:54;12.23;;;7.77;;
26050;SDS011;13825;53.496;10.020;2022-12-20T09:25:21;11.03;;;6.97;;
26050;SDS011;13825;53.496;10.020;2022-12-20T09:27:48;12.17;;;7.37;;
26050;SDS011;13825;53.496;10.020;2022-12-20T09:30:16;11.97;;;6.43;;
26050;SDS011;13825;53.496;10.020;2022-12-20T09:32:43;16.47;;;7.83;;
26050;SDS011;13825;53.496;10.020;2022-12-20T09:35:10;11.83;;;7.27;;
26050;SDS011;13825;53.496;10.020;2022-12-20T09:37:37;11.10;;;6.80;;
26050;SDS011;13825;53.496;10.020;2022-12-20T09:40:06;13.37;;;7.93;;
26050;SDS011;13825;53.496;10.020;2022-12-20T09:42:36;10.67;;;6.60;;
26050;SDS011;13825;53.496;10.020;2022-12-20T09:45:04;9.97;;;6.70;;
26050;SDS011;13825;53.496;10.020;2022-12-20T09:47:34;13.03;;;6.67;;
26050;SDS011;13825;53.496;10.020;2022-12-20T09:50:03;14.57;;;6.73;;
26050;SDS011;13825;53.496;10.020;2022-12-20T09:52:35;11.77;;;6.63;;
26050;SDS011;13825;53.496;10.020;2022-12-20T09:55:15;8.67;;;6.10;;
26050;SDS011;13825;53.496;10.020;2022-12-20T09:57:56;10.93;;;6.53;;
26050;SDS011;13825;53.496;10.020;2022-12-20T10:00:34;11.30;;;6.37;;
26050;SDS011;13825;53.496;10.020;2022-12-20T10:03:03;10.70;;;6.37;;
26050;SDS011;13825;53.496;10.020;2022-12-20T10:05:32;11.07;;;6.37;;
26050;SDS011;13825;53.496;10.020;2022-12-20T10:08:04;15.00;;;7.30;;
26050;SDS011;13825;53.496;10.020;2022-12-20T10:10:40;11.97;;;6.17;;
26050;SDS011;13825;53.496;10.020;2022-12-20T10:13:22;11.07;;;7.07;;
26050;SDS011;13825;53.496;10.020;2022-12-20T10:16:02;11.00;;;7.10;;
26050;SDS011;13825;53.496;10.020;2022-12-20T10:18:44;9.77;;;6.20;;
26050;SDS011;13825;53.496;10.020;2022-12-20T10:21:20;9.40;;;6.23;;
26050;SDS011;13825;53.496;10.020;2022-12-20T10:23:59;12.77;;;6.73;;
26050;SDS011;13825;53.496;10.020;2022-12-20T10:26:26;9.23;;;5.70;;
26050;SDS011;13825;53.496;10.020;2022-12-20T10:28:54;8.50;;;5.90;;
26050;SDS011;13825;53.496;10.020;2022-12-20T10:31:21;11.67;;;6.10;;
26050;SDS011;13825;53.496;10.020;2022-12-20T10:33:50;11.50;;;6.13;;
26050;SDS011;13825;53.496;10.020;2022-12-20T10:36:18;9.07;;;5.30;;
26050;SDS011;13825;53.496;10.020;2022-12-20T10:38:47;8.87;;;5.80;;
26050;SDS011;13825;53.496;10.020;2022-12-20T10:41:16;8.57;;;6.23;;
26050;SDS011;13825;53.496;10.020;2022-12-20T10:43:45;7.90;;;5.77;;
26050;SDS011;13825;53.496;10.020;2022-12-20T10:46:13;9.03;;;6.03;;
26050;SDS011;13825;53.496;10.020;2022-12-20T10:48:42;10.07;;;5.77;;
26050;SDS011;13825;53.496;10.020;2022-12-20T10:51:16;9.43;;;5.90;;
26050;SDS011;13825;53.496;10.020;2022-12-20T10:53:51;8.03;;;5.33;;
26050;SDS011;13825;53.496;10.020;2022-12-20T10:56:21;8.30;;;5.40;;
26050;SDS011;13825;53.496;10.020;2022-12-20T10:58:52;7.27;;;5.57;;
26050;SDS011;13825;53.496;10.020;2022-12-20T11:01:21;6.93;;;5.03;;
26050;SDS011;13825;53.496;10.020;2022-12-20T11:03:55;10.00;;;5.77;;
26050;SDS011;13825;53.496;10.020;2022-12-20T11:06:27;9.17;;;5.50;;
26050;SDS011;13825;53.496;10.020;2022-12-20T11:11:59;9.27;;;4.93;;
26050;SDS011;13825;53.496;10.020;2022-12-20T11:14:28;8.87;;;5.60;;
26050;SDS011;13825;53.496;10.020;2022-12-20T11:16:56;9.87;;;5.23;;
26050;SDS011;13825;53.496;10.020;2022-12-20T11:22:45;6.83;;;4.83;;
26050;SDS011;13825;53.496;10.020;2022-12-20T11:25:21;8.20;;;5.33;;
26050;SDS011;13825;53.496;10.020;2022-12-20T11:28:02;8.17;;;4.83;;
26050;SDS011;13825;53.496;10.020;2022-12-20T11:30:39;9.20;;;4.67;;
26050;SDS011;13825;53.496;10.020;2022-12-20T11:33:15;7.63;;;4.10;;
26050;SDS011;13825;53.496;10.020;2022-12-20T11:36:02;7.70;;;5.10;;
26050;SDS011;13825;53.496;10.020;2022-12-20T11:38:39;6.37;;;4.43;;
26050;SDS011;13825;53.496;10.020;2022-12-20T11:41:15;5.90;;;3.93;;
26050;SDS011;13825;53.496;10.020;2022-12-20T11:43:54;5.93;;;4.13;;
26050;SDS011;13825;53.496;10.020;2022-12-20T11:46:33;7.97;;;4.17;;
26050;SDS011;13825;53.496;10.020;2022-12-20T11:49:36;7.67;;;4.37;;
26050;SDS011;13825;53.496;10.020;2022-12-20T11:52:15;6.83;;;4.13;;
26050;SDS011;13825;53.496;10.020;2022-12-20T11:55:05;7.47;;;4.63;;
26050;SDS011;13825;53.496;10.020;2022-12-20T11:57:42;6.13;;;4.20;;
26050;SDS011;13825;53.496;10.020;2022-12-20T12:00:15;7.23;;;4.03;;
26050;SDS011;13825;53.496;10.020;2022-12-20T12:02:44;6.47;;;3.83;;
26050;SDS011;13825;53.496;10.020;2022-12-20T12:05:19;9.40;;;3.87;;
26050;SDS011;13825;53.496;10.020;2022-12-20T12:07:51;4.50;;;3.73;;
26050;SDS011;13825;53.496;10.020;2022-12-20T12:10:23;7.90;;;4.40;;
26050;SDS011;13825;53.496;10.020;2022-12-20T12:12:56;6.83;;;3.73;;
26050;SDS011;13825;53.496;10.020;2022-12-20T12:15:30;6.90;;;4.17;;
26050;SDS011;13825;53.496;10.020;2022-12-20T12:18:04;7.93;;;4.10;;
26050;SDS011;13825;53.496;10.020;2022-12-20T12:20:39;5.93;;;4.43;;
26050;SDS011;13825;53.496;10.020;2022-12-20T12:23:15;7.07;;;3.93;;
26050;SDS011;13825;53.496;10.020;2022-12-20T12:25:49;6.27;;;3.60;;
26050;SDS011;13825;53.496;10.020;2022-12-20T12:28:16;4.57;;;3.17;;
26050;SDS011;13825;53.496;10.020;2022-12-20T12:30:46;4.50;;;3.60;;
26050;SDS011;13825;53.496;10.020;2022-12-20T12:33:18;8.77;;;3.93;;
26050;SDS011;13825;53.496;10.020;2022-12-20T12:35:53;7.40;;;3.60;;
26050;SDS011;13825;53.496;10.020;2022-12-20T12:38:38;6.20;;;3.63;;
26050;SDS011;13825;53.496;10.020;2022-12-20T12:47:11;9.03;;;4.00;;
26050;SDS011;13825;53.496;10.020;2022-12-20T12:49:42;4.97;;;3.93;;
26050;SDS011;13825;53.496;10.020;2022-12-20T12:52:24;5.13;;;3.57;;
26050;SDS011;13825;53.496;10.020;2022-12-20T12:58:13;6.37;;;4.60;;
26050;SDS011;13825;53.496;10.020;2022-12-20T13:01:07;6.50;;;4.60;;
26050;SDS011;13825;53.496;10.020;2022-12-20T13:03:43;6.83;;;4.17;;
26050;SDS011;13825;53.496;10.020;2022-12-20T13:09:21;5.37;;;3.70;;
26050;SDS011;13825;53.496;10.020;2022-12-20T13:18:29;8.33;;;4.67;;
26050;SDS011;13825;53.496;10.020;2022-12-20T13:32:55;8.37;;;4.87;;
26050;SDS011;13825;53.496;10.020;2022-12-20T13:35:52;6.03;;;4.03;;
26050;SDS011;13825;53.496;10.020;2022-12-20T13:41:36;9.47;;;4.90;;
26050;SDS011;13825;53.496;10.020;2022-12-20T13:50:17;7.47;;;4.70;;
26050;SDS011;13825;53.496;10.020;2022-12-20T13:52:54;7.23;;;4.20;;
26050;SDS011;13825;53.496;10.020;2022-12-20T13:55:25;8.33;;;5.17;;
26050;SDS011;13825;53.496;10.020;2022-12-20T13:58:06;7.80;;;5.00;;
26050;SDS011;13825;53.496;10.020;2022-12-20T14:00:38;8.83;;;4.40;;
26050;SDS011;13825;53.496;10.020;2022-12-20T14:03:06;7.07;;;4.60;;
26050;SDS011;13825;53.496;10.020;2022-12-20T14:05:42;6.57;;;4.67;;
26050;SDS011;13825;53.496;10.020;2022-12-20T14:08:13;8.23;;;4.80;;
26050;SDS011;13825;53.496;10.020;2022-12-20T14:10:42;8.60;;;4.40;;
26050;SDS011;13825;53.496;10.020;2022-12-20T14:13:16;7.00;;;4.57;;
26050;SDS011;13825;53.496;10.020;2022-12-20T14:15:46;7.40;;;4.93;;
26050;SDS011;13825;53.496;10.020;2022-12-20T14:18:15;10.20;;;4.90;;
26050;SDS011;13825;53.496;10.020;2022-12-20T14:20:44;7.53;;;5.40;;
26050;SDS011;13825;53.496;10.020;2022-12-20T14:23:16;7.83;;;5.07;;
26050;SDS011;13825;53.496;10.020;2022-12-20T14:25:47;7.90;;;5.77;;
26050;SDS011;13825;53.496;10.020;2022-12-20T14:28:26;8.37;;;5.93;;
26050;SDS011;13825;53.496;10.020;2022-12-20T14:30:55;7.43;;;5.13;;
26050;SDS011;13825;53.496;10.020;2022-12-20T14:33:27;7.70;;;5.10;;
26050;SDS011;13825;53.496;10.020;2022-12-20T14:35:56;8.57;;;4.97;;
26050;SDS011;13825;53.496;10.020;2022-12-20T14:38:33;6.63;;;4.27;;
26050;SDS011;13825;53.496;10.020;2022-12-20T14:41:00;7.87;;;4.60;;
26050;SDS011;13825;53.496;10.020;2022-12-20T14:43:27;6.93;;;4.43;;
26050;SDS011;13825;53.496;10.020;2022-12-20T14:46:05;8.27;;;5.33;;
26050;SDS011;13825;53.496;10.020;2022-12-20T14:48:43;8.33;;;5.20;;
26050;SDS011;13825;53.496;10.020;2022-12-20T14:51:11;8.50;;;5.77;;
26050;SDS011;13825;53.496;10.020;2022-12-20T14:53:45;7.33;;;4.80;;
26050;SDS011;13825;53.496;10.020;2022-12-20T14:56:16;9.37;;;5.30;;
26050;SDS011;13825;53.496;10.020;2022-12-20T14:58:46;8.13;;;5.47;;
26050;SDS011;13825;53.496;10.020;2022-12-20T15:01:29;9.10;;;5.83;;
26050;SDS011;13825;53.496;10.020;2022-12-20T15:03:58;11.50;;;6.13;;
26050;SDS011;13825;53.496;10.020;2022-12-20T15:06:32;10.80;;;6.23;;
26050;SDS011;13825;53.496;10.020;2022-12-20T15:09:04;8.60;;;6.13;;
26050;SDS011;13825;53.496;10.020;2022-12-20T15:11:31;10.83;;;5.70;;
26050;SDS011;13825;53.496;10.020;2022-12-20T15:14:20;11.93;;;6.80;;
26050;SDS011;13825;53.496;10.020;2022-12-20T15:16:59;10.90;;;5.57;;
26050;SDS011;13825;53.496;10.020;2022-12-20T15:19:26;11.30;;;5.23;;
26050;SDS011;13825;53.496;10.020;2022-12-20T15:21:55;11.43;;;6.00;;
26050;SDS011;13825;53.496;10.020;2022-12-20T15:24:24;9.17;;;6.00;;
26050;SDS011;13825;53.496;10.020;2022-12-20T15:26:53;6.70;;;5.30;;
26050;SDS011;13825;53.496;10.020;2022-12-20T15:29:21;8.03;;;5.80;;
26050;SDS011;13825;53.496;10.020;2022-12-20T15:31:49;8.67;;;5.63;;
26050;SDS011;13825;53.496;10.020;2022-12-20T15:34:17;8.43;;;5.40;;
26050;SDS011;13825;53.496;10.020;2022-12-20T15:36:49;10.53;;;5.80;;
26050;SDS011;13825;53.496;10.020;2022-12-20T15:39:16;8.73;;;5.73;;